createdAt,value
2022-09-24T00:03:08.072Z,24.15
2022-09-24T00:07:58.993Z,21.73
2022-09-24T00:12:52.583Z,20.60
2022-09-24T00:17:43.125Z,18.35
2022-09-24T00:22:35.706Z,16.20
2022-09-24T00:27:26.257Z,14.38
2022-09-24T00:32:20.016Z,13.93
2022-09-24T00:37:11.482Z,13.40
2022-09-24T00:42:01.638Z,13.27
2022-09-24T00:46:52.098Z,13.27
2022-09-24T00:51:48.943Z,15.23
2022-09-24T00:56:43.186Z,17.87
2022-09-24T01:01:33.859Z,18.95
2022-09-24T01:06:24.725Z,18.60
2022-09-24T01:11:28.872Z,16.77
2022-09-24T01:16:26.237Z,16.88
2022-09-24T01:21:33.680Z,17.42
2022-09-24T01:26:44.552Z,16.17
2022-09-24T01:31:44.615Z,16.73
2022-09-24T01:36:37.287Z,17.15
2022-09-24T01:41:28.111Z,17.15
2022-09-24T01:46:20.147Z,17.33
2022-09-24T01:51:21.019Z,16.60
2022-09-24T01:56:16.294Z,16.33
2022-09-24T02:01:11.366Z,15.70
2022-09-24T02:06:07.512Z,16.47
2022-09-24T02:11:06.803Z,17.13
2022-09-24T02:16:02.996Z,16.33
2022-09-24T02:20:56.058Z,18.00
2022-09-24T02:25:58.268Z,20.00
2022-09-24T02:31:08.340Z,19.70
2022-09-24T02:35:58.952Z,20.77
2022-09-24T02:40:50.140Z,21.55
2022-09-24T02:45:40.794Z,22.47
2022-09-24T02:50:34.169Z,22.30
2022-09-24T02:55:24.263Z,23.75
2022-09-24T03:00:17.721Z,24.90
2022-09-24T03:05:07.972Z,26.20
2022-09-24T03:10:00.197Z,26.23
2022-09-24T03:14:49.833Z,27.73
2022-09-24T03:19:39.513Z,29.25
2022-09-24T03:24:29.128Z,29.55
2022-09-24T03:29:42.836Z,29.23
2022-09-24T03:34:32.625Z,30.77
2022-09-24T03:39:22.286Z,29.33
2022-09-24T03:44:11.867Z,30.27
2022-09-24T03:49:04.089Z,30.30
2022-09-24T03:53:53.777Z,30.03
2022-09-24T03:58:47.622Z,29.30
2022-09-24T04:03:38.504Z,28.70
2022-09-24T04:08:31.647Z,29.73
2022-09-24T04:13:22.416Z,29.37
2022-09-24T04:18:12.714Z,29.17
2022-09-24T04:23:02.484Z,27.45
2022-09-24T04:27:58.970Z,28.95
2022-09-24T04:32:48.791Z,28.47
2022-09-24T04:37:40.184Z,28.83
2022-09-24T04:42:29.864Z,28.45
2022-09-24T04:47:25.988Z,25.23
2022-09-24T04:52:17.504Z,23.40
2022-09-24T04:57:08.007Z,21.40
2022-09-24T05:01:57.784Z,20.00
2022-09-24T05:06:50.297Z,19.60
2022-09-24T05:11:40.009Z,18.80
2022-09-24T05:16:30.987Z,18.38
2022-09-24T05:21:21.467Z,18.60
2022-09-24T05:26:26.156Z,19.05
2022-09-24T05:31:15.851Z,20.52
2022-09-24T05:36:05.599Z,20.67
2022-09-24T05:40:55.405Z,20.23
2022-09-24T05:45:49.130Z,22.00
2022-09-24T05:50:38.842Z,21.17
2022-09-24T05:55:32.247Z,22.25
2022-09-24T06:00:22.738Z,22.33
2022-09-24T06:05:16.457Z,23.63
2022-09-24T06:10:07.682Z,23.80
2022-09-24T06:14:58.697Z,25.80
2022-09-24T06:19:49.924Z,26.58
2022-09-24T06:24:45.460Z,27.05
2022-09-24T06:29:36.488Z,27.80
2022-09-24T06:34:27.632Z,28.53
2022-09-24T06:39:19.306Z,29.77
2022-09-24T06:44:15.553Z,29.67
2022-09-24T06:49:06.113Z,29.02
2022-09-24T06:53:56.756Z,30.05
2022-09-24T06:58:50.047Z,31.43
2022-09-24T07:03:43.392Z,31.48
2022-09-24T07:08:34.377Z,31.90
2022-09-24T07:13:25.426Z,32.78
2022-09-24T07:18:16.689Z,33.70
2022-09-24T07:23:11.702Z,33.72
2022-09-24T07:28:06.049Z,29.13
2022-09-24T07:32:59.598Z,29.70
2022-09-24T07:37:50.288Z,27.33
2022-09-24T07:42:49.695Z,23.30
2022-09-24T07:47:40.126Z,21.17
2022-09-24T07:52:30.203Z,21.80
2022-09-24T07:57:20.305Z,19.60
2022-09-24T08:02:26.827Z,17.55
2022-09-24T08:07:21.366Z,16.55
2022-09-24T08:12:13.399Z,17.00
2022-09-24T08:17:03.969Z,18.50
2022-09-24T08:21:57.831Z,21.13
2022-09-24T08:26:49.031Z,21.77
2022-09-24T08:31:42.466Z,22.25
2022-09-24T08:36:33.817Z,23.02
2022-09-24T08:41:40.229Z,21.83
2022-09-24T08:46:48.304Z,20.77
2022-09-24T08:51:47.348Z,18.58
2022-09-24T08:56:45.997Z,19.20
2022-09-24T09:01:45.215Z,17.00
2022-09-24T09:07:01.742Z,16.55
2022-09-24T09:12:04.381Z,17.13
2022-09-24T09:16:58.669Z,8.32
2022-09-24T09:21:55.066Z,4.33
2022-09-24T09:26:46.781Z,2.50
2022-09-24T09:31:56.314Z,1.90
2022-09-24T09:37:05.452Z,1.75
2022-09-24T09:42:08.400Z,1.40
2022-09-24T09:47:07.032Z,1.20
2022-09-24T09:52:01.033Z,1.38
2022-09-24T09:56:52.995Z,0.95
2022-09-24T10:01:46.227Z,0.70
2022-09-24T10:06:39.574Z,0.77
2022-09-24T10:11:29.849Z,0.80
2022-09-24T10:16:25.988Z,0.82
2022-09-24T10:21:28.892Z,0.98
2022-09-24T10:26:22.733Z,0.70
2022-09-24T10:31:17.126Z,0.70
2022-09-24T10:36:10.275Z,0.80
2022-09-24T10:41:01.731Z,0.70
2022-09-24T10:46:21.949Z,0.98
2022-09-24T10:51:28.897Z,0.85
2022-09-24T10:56:29.384Z,1.00
2022-09-24T11:01:35.898Z,0.88
2022-09-24T11:06:43.975Z,0.80
2022-09-24T11:11:49.198Z,1.20
2022-09-24T11:17:05.161Z,0.85
2022-09-24T11:22:11.262Z,1.00
2022-09-24T11:27:19.368Z,0.65
2022-09-24T11:32:22.111Z,0.90
2022-09-24T11:37:26.765Z,0.90
2022-09-24T11:42:25.907Z,0.98
2022-09-24T11:47:33.858Z,0.93
2022-09-24T11:52:30.975Z,0.70
2022-09-24T11:57:28.222Z,0.90
2022-09-24T12:02:31.534Z,0.82
2022-09-24T12:07:27.262Z,1.30
2022-09-24T12:12:22.400Z,0.90
2022-09-24T12:17:26.888Z,1.33
2022-09-24T12:22:20.587Z,1.27
2022-09-24T12:27:18.722Z,1.40
2022-09-24T12:32:31.480Z,1.88
2022-09-24T12:37:29.230Z,1.98
2022-09-24T12:42:24.003Z,1.83
2022-09-24T12:47:25.361Z,1.13
2022-09-24T12:52:21.781Z,1.17
2022-09-24T12:57:24.973Z,1.13
2022-09-24T13:02:28.890Z,1.10
2022-09-24T13:07:34.964Z,1.50
2022-09-24T13:12:37.009Z,1.38
2022-09-24T13:17:30.173Z,1.13
2022-09-24T13:22:28.820Z,1.93
2022-09-24T13:27:41.547Z,1.60
2022-09-24T13:32:37.702Z,0.80
2022-09-24T13:37:36.974Z,0.55
2022-09-24T13:42:37.142Z,0.75
2022-09-24T13:47:33.656Z,0.70
2022-09-24T13:52:35.596Z,0.80
2022-09-24T13:57:28.477Z,0.55
2022-09-24T14:02:35.261Z,1.00
2022-09-24T14:07:25.805Z,1.00
2022-09-24T14:12:22.307Z,0.95
2022-09-24T14:17:17.805Z,0.90
2022-09-24T14:22:19.623Z,1.10
2022-09-24T14:27:13.255Z,0.70
2022-09-24T14:32:08.467Z,23.17
2022-09-24T14:37:01.804Z,9.77
2022-09-24T14:41:56.032Z,1.40
2022-09-24T14:46:51.735Z,0.65
2022-09-24T14:51:53.499Z,0.50
2022-09-24T14:56:44.787Z,0.60
2022-09-24T15:01:38.559Z,0.70
2022-09-24T15:06:32.514Z,0.60
2022-09-24T15:11:23.173Z,0.50
2022-09-24T15:16:23.709Z,0.50
2022-09-24T15:21:17.255Z,0.70
2022-09-24T15:26:09.051Z,0.70
2022-09-24T15:31:00.288Z,0.60
2022-09-24T15:35:51.470Z,0.50
2022-09-24T15:40:46.248Z,0.45
2022-09-24T15:45:37.445Z,1.00
2022-09-24T15:50:28.469Z,0.40
2022-09-24T15:55:21.331Z,0.70
2022-09-24T16:00:20.038Z,0.40
2022-09-24T16:05:15.084Z,0.40
2022-09-24T16:10:08.125Z,0.50
2022-09-24T16:15:00.997Z,0.70
2022-09-24T16:19:54.675Z,0.50
2022-09-24T16:24:45.450Z,0.60
2022-09-24T16:29:36.245Z,0.50
2022-09-24T16:34:26.506Z,0.37
2022-09-24T16:39:19.692Z,0.40
2022-09-24T16:44:10.958Z,0.40
2022-09-24T16:49:01.767Z,0.40
2022-09-24T16:53:58.169Z,0.40
2022-09-24T16:58:51.631Z,0.40
2022-09-24T17:03:42.287Z,0.30
2022-09-24T17:08:46.310Z,0.50
2022-09-24T17:13:36.731Z,0.40
2022-09-24T17:18:29.326Z,0.40
2022-09-24T17:23:19.216Z,0.50
2022-09-24T17:28:11.316Z,0.40
2022-09-24T17:33:01.135Z,0.30
2022-09-24T17:37:53.779Z,0.30
2022-09-24T17:42:47.187Z,0.40
2022-09-24T17:47:49.305Z,0.50
2022-09-24T17:52:39.233Z,0.30
2022-09-24T17:57:31.973Z,0.30
2022-09-24T18:02:22.619Z,0.30
2022-09-24T18:07:12.767Z,0.50
2022-09-24T18:12:03.537Z,0.50
2022-09-24T18:16:56.611Z,0.50
2022-09-24T18:21:49.309Z,0.32
2022-09-24T18:26:41.135Z,0.40
2022-09-24T18:31:33.201Z,0.50
2022-09-24T18:36:28.763Z,0.30
2022-09-24T18:41:22.839Z,0.20
2022-09-24T18:46:18.413Z,0.45
2022-09-24T18:51:10.045Z,0.35
2022-09-24T18:56:06.211Z,0.40
2022-09-24T19:01:01.909Z,0.30
2022-09-24T19:05:52.466Z,0.30
2022-09-24T19:10:42.751Z,0.30
2022-09-24T19:15:38.761Z,0.60
2022-09-24T19:20:28.480Z,0.85
2022-09-24T19:25:18.688Z,0.45
2022-09-24T19:30:10.182Z,0.47
2022-09-24T19:35:02.831Z,0.63
2022-09-24T19:39:53.253Z,0.40
2022-09-24T19:44:46.087Z,0.50
2022-09-24T19:49:35.972Z,0.67
2022-09-24T19:54:28.330Z,0.40
2022-09-24T19:59:18.117Z,0.30
2022-09-24T20:04:09.888Z,0.40
2022-09-24T20:09:00.022Z,0.50
2022-09-24T20:13:53.862Z,1.20
2022-09-24T20:18:43.529Z,1.10
2022-09-24T20:23:35.357Z,1.00
2022-09-24T20:28:25.018Z,0.70
2022-09-24T20:33:20.329Z,1.10
2022-09-24T20:38:10.646Z,0.73
2022-09-24T20:43:00.272Z,0.80
2022-09-24T20:47:50.041Z,0.90
2022-09-24T20:52:42.291Z,1.07
2022-09-24T20:57:32.025Z,1.48
2022-09-24T21:02:21.819Z,1.70
2022-09-24T21:07:11.660Z,2.03
2022-09-24T21:12:05.082Z,2.65
2022-09-24T21:16:55.217Z,1.57
2022-09-24T21:21:45.352Z,1.67
2022-09-24T21:26:36.520Z,1.20
2022-09-24T21:31:30.989Z,0.90
2022-09-24T21:36:21.339Z,1.98
2022-09-24T21:41:11.112Z,4.13
2022-09-24T21:46:06.540Z,1.00
2022-09-24T21:51:04.750Z,1.90
2022-09-24T21:55:54.463Z,1.58
2022-09-24T22:00:44.992Z,0.88
2022-09-24T22:05:36.279Z,1.30
2022-09-24T22:10:28.538Z,1.00
2022-09-24T22:15:21.401Z,1.00
2022-09-24T22:20:12.008Z,2.40
2022-09-24T22:25:01.979Z,1.48
2022-09-24T22:29:58.007Z,1.37
2022-09-24T22:35:00.316Z,1.40
2022-09-24T22:39:49.946Z,1.75
2022-09-24T22:44:39.627Z,1.23
2022-09-24T22:49:32.686Z,1.63
2022-09-24T22:54:24.331Z,1.40
2022-09-24T22:59:14.052Z,1.38
2022-09-24T23:04:05.533Z,1.25
2022-09-24T23:08:58.165Z,1.20
2022-09-24T23:13:49.881Z,1.07
2022-09-24T23:18:39.627Z,1.30
2022-09-24T23:23:29.216Z,1.40
2022-09-24T23:28:21.658Z,1.30
2022-09-24T23:33:11.316Z,0.90
2022-09-24T23:38:01.086Z,1.55
2022-09-24T23:42:50.683Z,1.70
2022-09-24T23:47:42.980Z,1.38
2022-09-24T23:52:32.689Z,1.20
2022-09-24T23:57:25.347Z,1.80
